SBOSBO BNA / KBNA
Speedbird OnlineSpeedbird Online BNA / KBNA

Nashville International Airport
02:34 10°C

Location Nashville, United States
Latitude: 36.1245002746582
Longitude: -86.6781997680664
Web Wikipedia
Altitude 183 Meter / 599 Feet
Distance 6,750 KM / 4,194 Miles
from London.
Time Zone UTC -5 hours (America/Chicago)
Codes IATA: BNA
ICAO: KBNA
Currency £1 equals USD 1.13
Runways
RunwayLength (m)Surface
02C2439Concrete
02L2348Concrete
02R2438Concrete
133362Asphalt
20C2439Concrete
20L2438Concrete
20R2348Concrete
313362Asphalt
Radio
TypeDescriptionFrequency
APPAPP120.6
ATISATIS135.1
CLDCLNC DEL126.05
DEPDEP118.4
GNDGND121.9
MISCANG MAINT138.1
OPSANG OPS32.29
RDORDO122.2
TWRTWR118.6
UNICUNICOM122.95
Live ATC
METAR KBNA 060653Z 18003KT 10SM CLR 11/05 A3011 RMK AO2 SLP194 T01060050
TAF KBNA 060520Z 0606/0706 00000KT P6SM SKC FM061400 22006KT P6SM SKC
Weather As Of 06 Oct 2022 02:34
Description Clear sky
Wind 6 km/h from South (180°)
Cloud Cover 0%
Precipitation Rain: none, Snow: none
Sunrise 06:45
Sunset 18:23
Lounges American Airlines Admirals Club, Main Terminal
Rotations During the last 90 days there were
85 flights from LHR
89 flights to LHR


© 2017-2022 Speedbird Online